Time;durP1;ratioP1;P1;durP2;ratioP2;P2;SDS_P1;SDS_P2;PMS_P1;PMS_P2;Temp;Humidity;BMP_temperature;BMP_pressure;BME280_temperature;BME280_humidity;BME280_pressure;Samples;Min_cycle;Max_cycle;Signal;HPM_P1;HPM_P2
2022/07/15 00:00:34;;;;;;;0.70;0.70;;;14.30;99.90;;;;;;5052907;28;20201;-70
2022/07/15 00:03:22;;;;;;;1.33;0.60;;;14.20;99.90;;;;;;5054106;28;20427;-70
2022/07/15 00:06:11;;;;;;;0.67;0.67;;;14.20;99.90;;;;;;5056212;28;20212;-70
2022/07/15 00:08:59;;;;;;;0.60;0.60;;;14.20;99.90;;;;;;5057167;28;20467;-70
2022/07/15 00:11:47;;;;;;;0.60;0.60;;;14.20;99.90;;;;;;5057128;28;20416;-70
2022/07/15 00:14:35;;;;;;;0.40;0.40;;;14.10;99.90;;;;;;5053247;28;20467;-70
2022/07/15 00:17:25;;;;;;;0.40;0.40;;;14.10;99.90;;;;;;5056988;28;20427;-70
2022/07/15 00:20:15;;;;;;;0.40;0.40;;;14.00;99.90;;;;;;5057095;28;20716;-72
2022/07/15 00:23:04;;;;;;;0.40;0.40;;;14.00;99.90;;;;;;5057142;28;20416;-70
2022/07/15 00:25:52;;;;;;;0.60;0.60;;;13.90;99.90;;;;;;5056141;28;20443;-71
2022/07/15 00:28:40;;;;;;;0.90;0.90;;;13.90;99.90;;;;;;5056678;28;20428;-72
2022/07/15 00:31:29;;;;;;;1.33;0.80;;;13.90;99.90;;;;;;5056411;28;20420;-72
2022/07/15 00:34:19;;;;;;;9.50;2.93;;;13.80;99.90;;;;;;5057165;28;20448;-72
2022/07/15 00:37:07;;;;;;;0.63;0.63;;;13.70;99.90;;;;;;5057282;28;20832;-72
2022/07/15 00:39:55;;;;;;;1.03;1.03;;;13.70;99.90;;;;;;5056365;28;20432;-72
2022/07/15 00:42:46;;;;;;;3.50;1.00;;;13.60;99.90;;;;;;5056802;28;20789;-70
2022/07/15 00:45:35;;;;;;;0.40;0.40;;;13.60;99.90;;;;;;5055847;28;20444;-74
2022/07/15 00:48:23;;;;;;;0.40;0.40;;;13.60;99.90;;;;;;5055910;28;20812;-73
2022/07/15 00:51:12;;;;;;;0.40;0.40;;;13.60;99.90;;;;;;5055165;28;20475;-72
2022/07/15 00:54:01;;;;;;;2.73;2.10;;;13.50;99.90;;;;;;5056667;28;20844;-72
2022/07/15 00:56:51;;;;;;;0.77;0.73;;;13.50;99.90;;;;;;5060529;28;20431;-75
2022/07/15 00:59:40;;;;;;;0.60;0.60;;;13.50;99.90;;;;;;5075218;28;20439;-73
2022/07/15 01:02:28;;;;;;;0.50;0.50;;;13.50;99.90;;;;;;5071502;28;20424;-71
2022/07/15 01:05:18;;;;;;;0.87;0.80;;;13.50;99.90;;;;;;5056794;28;20455;-70
2022/07/15 01:08:08;;;;;;;0.40;0.40;;;13.40;99.90;;;;;;5057031;28;20440;-70
2022/07/15 01:10:56;;;;;;;0.50;0.50;;;13.40;99.90;;;;;;5056280;28;20972;-70
2022/07/15 01:13:45;;;;;;;0.77;0.77;;;13.40;99.90;;;;;;5056895;28;20429;-70
2022/07/15 01:16:33;;;;;;;0.40;0.40;;;13.30;99.90;;;;;;5055749;28;20427;-70
2022/07/15 01:19:22;;;;;;;0.90;0.80;;;13.40;99.90;;;;;;5055056;28;20209;-72
2022/07/15 01:22:11;;;;;;;0.40;0.40;;;13.30;99.90;;;;;;5056024;28;20450;-71
2022/07/15 01:24:59;;;;;;;0.53;0.53;;;13.30;99.90;;;;;;5056118;28;20440;-70
2022/07/15 01:27:48;;;;;;;0.40;0.40;;;13.30;99.90;;;;;;5056427;28;20523;-70
2022/07/15 01:30:36;;;;;;;0.50;0.50;;;13.20;99.90;;;;;;5055512;28;20464;-70
2022/07/15 01:33:24;;;;;;;0.50;0.50;;;13.20;99.90;;;;;;5055882;28;20428;-70
2022/07/15 01:36:13;;;;;;;0.60;0.60;;;13.20;99.90;;;;;;5056752;28;20420;-70
2022/07/15 01:39:03;;;;;;;0.50;0.50;;;13.20;99.90;;;;;;5057294;28;20999;-70
2022/07/15 01:42:11;;;;;;;0.47;0.47;;;13.10;99.90;;;;;;5056069;28;20932;-72
2022/07/15 01:44:59;;;;;;;0.50;0.50;;;13.10;99.90;;;;;;5062491;28;20823;-70
2022/07/15 01:47:49;;;;;;;0.60;0.60;;;13.00;99.90;;;;;;5055499;28;20451;-70
2022/07/15 01:50:37;;;;;;;0.70;0.60;;;13.00;99.90;;;;;;5066928;28;20977;-70
2022/07/15 01:53:26;;;;;;;0.40;0.40;;;13.00;99.90;;;;;;5094189;28;20423;-71
2022/07/15 01:56:15;;;;;;;0.40;0.40;;;12.90;99.90;;;;;;5092148;28;20461;-71
2022/07/15 01:59:03;;;;;;;0.40;0.40;;;12.90;99.90;;;;;;5093048;28;20423;-74
2022/07/15 02:01:53;;;;;;;0.40;0.40;;;12.80;99.90;;;;;;5091544;28;20505;-72
2022/07/15 02:04:41;;;;;;;0.50;0.50;;;12.80;99.90;;;;;;5092496;28;20475;-71
2022/07/15 02:07:29;;;;;;;0.40;0.40;;;12.80;99.90;;;;;;5092012;28;20423;-72
2022/07/15 02:10:17;;;;;;;0.53;0.50;;;12.70;99.90;;;;;;5080101;28;20810;-71
2022/07/15 02:13:07;;;;;;;0.67;0.67;;;12.70;99.90;;;;;;5080402;28;20423;-70
2022/07/15 02:15:56;;;;;;;0.40;0.40;;;12.70;99.90;;;;;;5075887;28;20982;-72
2022/07/15 02:18:44;;;;;;;0.40;0.40;;;12.60;99.90;;;;;;5073462;28;20427;-70
2022/07/15 02:21:33;;;;;;;0.40;0.40;;;12.60;99.90;;;;;;5074380;28;20442;-71
2022/07/15 02:24:21;;;;;;;0.50;0.50;;;12.50;99.90;;;;;;5074925;28;20449;-70
2022/07/15 02:27:09;;;;;;;0.60;0.60;;;12.50;99.90;;;;;;5075262;28;20423;-71
2022/07/15 02:29:59;;;;;;;0.70;0.70;;;12.50;99.90;;;;;;5075085;28;20420;-71
2022/07/15 02:32:47;;;;;;;0.50;0.50;;;12.50;99.90;;;;;;5074754;28;20434;-70
2022/07/15 02:35:37;;;;;;;0.40;0.40;;;12.50;99.90;;;;;;5073900;28;20439;-71
2022/07/15 02:38:25;;;;;;;1.23;1.13;;;12.50;99.90;;;;;;5074863;28;20810;-70
2022/07/15 02:41:13;;;;;;;0.40;0.40;;;12.40;99.90;;;;;;5073604;28;20423;-71
2022/07/15 02:44:03;;;;;;;0.40;0.40;;;12.50;99.90;;;;;;5072567;28;20428;-71
2022/07/15 02:46:53;;;;;;;0.40;0.40;;;12.50;99.90;;;;;;5072793;28;20430;-70
2022/07/15 02:49:41;;;;;;;0.40;0.40;;;12.40;99.90;;;;;;5074150;28;20488;-71
2022/07/15 02:52:29;;;;;;;0.50;0.50;;;12.40;99.90;;;;;;5040444;28;20869;-71
2022/07/15 02:55:18;;;;;;;0.50;0.50;;;12.40;99.90;;;;;;5034477;28;20453;-70
2022/07/15 02:58:06;;;;;;;0.40;0.40;;;12.30;99.90;;;;;;5033456;28;20436;-70
2022/07/15 03:00:54;;;;;;;0.60;0.60;;;12.30;99.90;;;;;;5032950;28;20425;-70
2022/07/15 03:03:44;;;;;;;0.40;0.40;;;12.30;99.90;;;;;;5034417;28;20429;-70
2022/07/15 03:06:33;;;;;;;0.50;0.50;;;12.30;99.90;;;;;;5035670;28;20433;-70
2022/07/15 03:09:21;;;;;;;0.50;0.50;;;12.30;99.90;;;;;;5033747;28;20421;-70
2022/07/15 03:12:09;;;;;;;0.50;0.50;;;12.30;99.90;;;;;;5033595;28;20464;-71
2022/07/15 03:14:58;;;;;;;0.50;0.50;;;12.30;99.90;;;;;;5033476;28;20840;-71
2022/07/15 03:17:46;;;;;;;0.40;0.40;;;12.30;99.90;;;;;;5033927;28;20425;-70
2022/07/15 03:20:36;;;;;;;0.50;0.50;;;12.30;99.90;;;;;;5033438;28;20434;-70
2022/07/15 03:23:24;;;;;;;0.87;0.87;;;12.30;99.90;;;;;;5033089;28;20863;-70
2022/07/15 03:26:12;;;;;;;0.40;0.40;;;12.30;99.90;;;;;;5033617;28;20480;-71
2022/07/15 03:29:00;;;;;;;0.40;0.40;;;12.30;99.90;;;;;;5033818;28;20425;-71
2022/07/15 03:31:48;;;;;;;0.50;0.50;;;12.30;99.90;;;;;;5032983;28;21050;-70
2022/07/15 03:34:37;;;;;;;0.40;0.40;;;12.30;99.90;;;;;;5033593;28;20461;-70
2022/07/15 03:37:26;;;;;;;0.40;0.40;;;12.30;99.90;;;;;;5033203;28;20433;-70
2022/07/15 03:40:14;;;;;;;0.40;0.40;;;12.30;99.90;;;;;;5031724;28;20425;-71
2022/07/15 03:43:02;;;;;;;0.50;0.50;;;12.20;99.90;;;;;;5033815;28;20421;-72
2022/07/15 03:45:51;;;;;;;0.50;0.50;;;12.30;99.90;;;;;;5033422;28;20460;-72
2022/07/15 03:48:39;;;;;;;0.73;0.60;;;12.30;99.90;;;;;;5032893;28;20429;-72
2022/07/15 03:59:44;;;;;;;0.40;0.40;;;12.30;99.90;;;;;;5046642;28;20510;-72
2022/07/15 04:02:33;;;;;;;0.87;0.87;;;12.30;99.90;;;;;;5052305;28;20435;-70
2022/07/15 04:05:21;;;;;;;20.03;1.33;;;12.30;99.90;;;;;;5053018;28;20460;-69
2022/07/15 04:08:09;;;;;;;0.50;0.50;;;12.40;99.90;;;;;;5053243;28;20421;-72
2022/07/15 04:10:58;;;;;;;0.50;0.50;;;12.40;99.90;;;;;;5051340;28;21057;-70
2022/07/15 04:13:46;;;;;;;0.80;0.80;;;12.40;99.90;;;;;;5036219;28;20429;-71
2022/07/15 04:16:36;;;;;;;0.40;0.40;;;12.50;99.90;;;;;;5056533;23;20498;-68
2022/07/15 04:19:24;;;;;;;0.40;0.40;;;12.50;99.90;;;;;;5032073;28;20413;-68
2022/07/15 04:22:12;;;;;;;0.50;0.50;;;12.60;99.90;;;;;;5032985;28;20421;-69
2022/07/15 04:25:01;;;;;;;0.50;0.50;;;12.60;99.90;;;;;;5035433;28;20440;-68
2022/07/15 04:27:49;;;;;;;0.50;0.50;;;12.60;99.90;;;;;;5034821;28;20436;-69
2022/07/15 04:30:38;;;;;;;0.40;0.40;;;12.60;99.90;;;;;;5036985;28;20437;-69
2022/07/15 04:33:27;;;;;;;0.40;0.40;;;12.70;99.90;;;;;;5032548;28;20425;-69
2022/07/15 04:36:15;;;;;;;0.40;0.40;;;12.70;99.90;;;;;;5031845;28;20437;-69
2022/07/15 04:39:03;;;;;;;0.40;0.40;;;12.80;99.90;;;;;;5033191;28;20466;-68
2022/07/15 04:41:52;;;;;;;0.67;0.60;;;12.90;99.90;;;;;;5032614;28;20444;-69
2022/07/15 04:44:40;;;;;;;1.03;1.03;;;13.20;99.90;;;;;;5032534;28;21130;-69
2022/07/15 04:47:28;;;;;;;0.53;0.53;;;13.30;99.90;;;;;;5031763;28;20421;-69
2022/07/15 04:53:23;;;;;;;1.20;0.90;;;13.60;99.90;;;;;;5047673;28;20448;-69
2022/07/15 04:56:12;;;;;;;0.40;0.40;;;13.70;99.90;;;;;;5054529;28;20483;-68
2022/07/15 04:59:00;;;;;;;0.50;0.50;;;13.70;99.90;;;;;;5056481;28;20425;-68
2022/07/15 05:01:48;;;;;;;0.60;0.60;;;13.90;99.90;;;;;;5057347;28;20425;-69
2022/07/15 05:04:36;;;;;;;1.00;0.90;;;13.90;99.90;;;;;;5054635;28;20444;-69
2022/07/15 05:07:26;;;;;;;0.40;0.40;;;14.00;99.90;;;;;;5057348;28;20456;-68
2022/07/15 05:10:14;;;;;;;0.40;0.40;;;14.10;99.90;;;;;;5055035;28;20426;-68
2022/07/15 05:13:03;;;;;;;0.63;0.63;;;14.20;99.90;;;;;;5055552;28;20480;-69
2022/07/15 05:15:51;;;;;;;1.27;0.60;;;14.30;99.90;;;;;;5054729;28;20465;-69
2022/07/15 05:18:40;;;;;;;0.40;0.40;;;14.40;99.90;;;;;;5055456;28;20428;-68
2022/07/15 05:21:28;;;;;;;0.40;0.40;;;14.50;99.90;;;;;;5055270;28;20429;-68
2022/07/15 05:24:19;;;;;;;0.50;0.50;;;14.50;99.90;;;;;;5053229;28;20455;-69
2022/07/15 05:27:16;;;;;;;1.13;1.13;;;14.50;99.90;;;;;;5054578;28;20433;-69
2022/07/15 05:30:05;;;;;;;0.60;0.60;;;14.50;99.90;;;;;;5052055;28;20436;-70
2022/07/15 05:32:54;;;;;;;0.60;0.60;;;14.60;99.90;;;;;;5053844;28;20495;-69
2022/07/15 05:35:42;;;;;;;0.60;0.60;;;14.60;99.90;;;;;;5055070;28;20479;-69
2022/07/15 05:38:30;;;;;;;0.50;0.50;;;14.50;99.90;;;;;;5054452;28;20421;-69
2022/07/15 05:41:19;;;;;;;0.50;0.50;;;14.40;99.90;;;;;;5053255;28;20437;-69
2022/07/15 05:44:08;;;;;;;0.70;0.70;;;14.30;99.90;;;;;;5055544;28;20429;-69
2022/07/15 05:46:56;;;;;;;0.40;0.40;;;14.20;99.90;;;;;;5036610;28;20491;-69
2022/07/15 05:49:45;;;;;;;0.73;0.60;;;14.00;99.90;;;;;;5034877;28;20433;-69
2022/07/15 05:52:34;;;;;;;0.50;0.50;;;13.80;99.90;;;;;;5035072;28;20457;-69
2022/07/15 05:55:23;;;;;;;0.50;0.50;;;13.80;99.90;;;;;;5034502;28;20449;-69
2022/07/15 05:58:12;;;;;;;0.40;0.40;;;13.80;99.90;;;;;;5035369;28;20433;-70
2022/07/15 06:01:00;;;;;;;0.50;0.50;;;13.90;99.90;;;;;;5030700;28;20425;-69
2022/07/15 06:03:48;;;;;;;1.10;0.50;;;13.90;99.90;;;;;;5032970;28;20424;-69
2022/07/15 06:06:37;;;;;;;0.40;0.40;;;14.00;99.90;;;;;;5035717;28;20445;-69
2022/07/15 06:09:25;;;;;;;0.40;0.40;;;14.20;99.90;;;;;;5035154;28;20534;-69
2022/07/15 06:12:13;;;;;;;7.30;1.03;;;14.50;99.90;;;;;;5034215;28;21030;-69
2022/07/15 06:15:03;;;;;;;0.50;0.50;;;14.80;99.90;;;;;;5035310;28;20417;-69
2022/07/15 06:17:53;;;;;;;0.47;0.47;;;15.10;99.90;;;;;;5034768;28;20219;-69
2022/07/15 06:20:42;;;;;;;0.50;0.50;;;15.30;99.90;;;;;;5033960;28;20202;-69
2022/07/15 06:23:30;;;;;;;18.40;3.43;;;15.50;99.90;;;;;;5032255;28;20433;-69
2022/07/15 06:26:18;;;;;;;1.00;0.50;;;15.50;99.90;;;;;;5033594;28;20249;-69
2022/07/15 06:29:06;;;;;;;0.57;0.47;;;15.60;99.90;;;;;;5031454;28;20543;-69
2022/07/15 06:31:56;;;;;;;0.40;0.40;;;15.90;99.90;;;;;;5033535;28;20194;-70
2022/07/15 06:34:45;;;;;;;0.70;0.70;;;16.20;99.90;;;;;;5034037;28;20202;-70
2022/07/15 06:37:34;;;;;;;0.40;0.40;;;16.30;99.90;;;;;;5033752;28;20202;-69
2022/07/15 06:40:22;;;;;;;1.33;1.23;;;16.00;99.90;;;;;;5034223;28;20225;-70
2022/07/15 06:43:10;;;;;;;0.40;0.40;;;15.80;99.90;;;;;;5033905;28;20209;-70
2022/07/15 06:46:00;;;;;;;0.70;0.70;;;15.80;99.90;;;;;;5034315;28;20218;-70
2022/07/15 06:48:50;;;;;;;0.40;0.40;;;15.90;99.90;;;;;;5033251;28;20208;-70
2022/07/15 06:51:38;;;;;;;0.50;0.50;;;16.00;99.90;;;;;;5033758;28;20198;-69
2022/07/15 06:54:26;;;;;;;0.50;0.50;;;16.30;99.90;;;;;;5034433;28;20210;-69
2022/07/15 06:57:16;;;;;;;0.60;0.60;;;16.40;99.90;;;;;;5034824;28;20206;-70
2022/07/15 07:00:09;;;;;;;1.00;0.70;;;16.60;99.90;;;;;;5032354;28;20257;-70
2022/07/15 07:02:57;;;;;;;0.60;0.60;;;16.60;99.90;;;;;;5033419;28;20217;-69
2022/07/15 07:05:46;;;;;;;1.42;0.70;;;16.60;99.90;;;;;;5033729;28;20276;-70
2022/07/15 07:08:34;;;;;;;0.50;0.50;;;16.60;99.90;;;;;;5034181;28;20675;-70
2022/07/15 07:11:23;;;;;;;0.40;0.40;;;16.60;99.90;;;;;;5033300;28;20340;-70
2022/07/15 07:14:11;;;;;;;0.40;0.40;;;16.70;99.90;;;;;;5033418;28;20218;-70
2022/07/15 07:16:59;;;;;;;0.50;0.50;;;16.80;99.90;;;;;;5032075;28;20236;-69
2022/07/15 07:19:49;;;;;;;0.70;0.70;;;17.00;99.90;;;;;;5033827;28;20206;-71
2022/07/15 07:22:38;;;;;;;0.50;0.50;;;17.20;99.90;;;;;;5033072;28;20226;-71
2022/07/15 07:25:27;;;;;;;0.50;0.50;;;17.30;99.90;;;;;;5031694;28;20371;-71
2022/07/15 07:28:15;;;;;;;0.85;0.77;;;17.40;99.90;;;;;;5032696;28;20209;-70
2022/07/15 07:31:03;;;;;;;1.20;0.68;;;17.40;99.90;;;;;;5032406;28;20206;-70
2022/07/15 07:33:51;;;;;;;0.40;0.40;;;17.40;99.90;;;;;;5032211;28;20221;-69
2022/07/15 07:36:39;;;;;;;0.40;0.40;;;17.30;99.90;;;;;;5034183;28;20729;-70
2022/07/15 07:39:29;;;;;;;1.08;0.60;;;17.40;99.90;;;;;;5032477;28;20229;-69
2022/07/15 07:42:17;;;;;;;0.50;0.50;;;17.40;99.90;;;;;;5031605;28;20205;-72
2022/07/15 07:45:06;;;;;;;0.40;0.40;;;17.30;99.90;;;;;;5031557;28;20197;-69
2022/07/15 07:47:54;;;;;;;5.35;2.63;;;17.20;99.90;;;;;;5031024;28;20205;-71
2022/07/15 07:50:43;;;;;;;0.50;0.50;;;17.40;99.90;;;;;;5032194;28;20210;-70
2022/07/15 07:53:31;;;;;;;0.40;0.40;;;17.50;99.90;;;;;;5025828;28;20218;-71
2022/07/15 07:56:21;;;;;;;1.13;0.60;;;17.50;99.90;;;;;;5014065;28;20224;-70
2022/07/15 07:59:09;;;;;;;0.40;0.40;;;17.50;99.90;;;;;;5033521;28;20198;-70
2022/07/15 08:01:57;;;;;;;0.50;0.50;;;17.60;99.90;;;;;;5032188;28;20209;-70
2022/07/15 08:04:45;;;;;;;4.35;1.40;;;17.70;99.90;;;;;;5032189;28;20209;-71
2022/07/15 08:07:34;;;;;;;0.40;0.40;;;17.80;99.90;;;;;;5031634;28;20202;-72
2022/07/15 08:10:22;;;;;;;0.77;0.77;;;18.10;99.90;;;;;;5031750;28;20194;-71
2022/07/15 08:13:13;;;;;;;1.10;0.55;;;18.40;99.90;;;;;;5032352;28;20225;-70
2022/07/15 08:16:01;;;;;;;0.40;0.40;;;18.40;99.90;;;;;;5032002;28;20236;-72
2022/07/15 08:18:57;;;;;;;0.40;0.40;;;18.30;99.90;;;;;;5033194;28;20198;-71
2022/07/15 08:21:45;;;;;;;0.88;0.50;;;18.00;99.90;;;;;;5032082;28;20345;-71
2022/07/15 08:24:34;;;;;;;0.93;0.93;;;17.80;99.90;;;;;;5031535;28;20205;-71
2022/07/15 08:27:22;;;;;;;0.40;0.40;;;17.50;99.90;;;;;;5034983;28;20273;-70
2022/07/15 08:30:11;;;;;;;0.40;0.40;;;17.30;99.90;;;;;;5035751;28;20579;-70
2022/07/15 08:33:00;;;;;;;0.40;0.40;;;17.10;99.90;;;;;;5035997;28;20198;-71
2022/07/15 08:35:48;;;;;;;0.50;0.50;;;17.00;99.90;;;;;;5035726;28;20225;-70
2022/07/15 08:38:36;;;;;;;0.55;0.50;;;17.00;99.90;;;;;;5034853;28;20210;-71
2022/07/15 08:41:25;;;;;;;0.40;0.40;;;17.10;99.90;;;;;;5036400;28;20328;-70
2022/07/15 08:44:13;;;;;;;0.50;0.50;;;17.50;99.90;;;;;;5035006;28;20664;-70
2022/07/15 08:47:05;;;;;;;3.05;1.25;;;17.90;99.90;;;;;;5036581;28;20218;-68
2022/07/15 08:50:12;;;;;;;0.40;0.40;;;18.00;99.90;;;;;;5034771;28;20221;-69
2022/07/15 08:53:00;;;;;;;0.50;0.50;;;18.50;99.90;;;;;;5035736;28;20264;-69
2022/07/15 08:55:48;;;;;;;0.40;0.40;;;18.80;99.90;;;;;;5045353;28;20230;-69
2022/07/15 08:58:37;;;;;;;6.43;1.58;;;18.90;99.90;;;;;;5050392;28;20565;-70
2022/07/15 09:01:47;;;;;;;2.80;0.73;;;19.10;99.90;;;;;;5042504;28;20236;-68
2022/07/15 09:04:52;;;;;;;0.85;0.70;;;19.10;99.90;;;;;;5042163;28;20209;-69
2022/07/15 09:07:54;;;;;;;1.75;1.55;;;19.10;99.90;;;;;;5040223;28;20578;-69
2022/07/15 09:10:49;;;;;;;0.52;0.52;;;19.00;99.90;;;;;;5047258;28;20257;-69
2022/07/15 09:13:41;;;;;;;1.15;0.73;;;19.10;99.90;;;;;;5037956;28;20337;-68
2022/07/15 09:16:30;;;;;;;0.60;0.60;;;19.10;99.90;;;;;;5037423;28;20230;-71
2022/07/15 09:19:18;;;;;;;0.77;0.68;;;19.10;99.90;;;;;;5035534;28;20209;-69
2022/07/15 09:22:08;;;;;;;0.40;0.40;;;19.00;99.90;;;;;;5035471;28;20210;-68
2022/07/15 09:25:06;;;;;;;0.40;0.40;;;18.60;99.90;;;;;;5034867;28;20190;-69
2022/07/15 09:27:54;;;;;;;0.40;0.40;;;18.30;99.90;;;;;;5035272;28;20210;-69
2022/07/15 09:33:52;;;;;;;0.93;0.93;;;18.40;99.90;;;;;;5035246;28;20249;-69
2022/07/15 09:36:43;;;;;;;0.40;0.40;;;18.70;99.90;;;;;;5034911;28;20291;-69
2022/07/15 09:39:53;;;;;;;0.57;0.57;;;18.90;99.90;;;;;;5035073;28;20202;-69
2022/07/15 09:43:05;;;;;;;0.40;0.40;;;19.20;99.90;;;;;;5035399;28;20554;-69
2022/07/15 09:46:02;;;;;;;0.60;0.60;;;19.50;99.90;;;;;;5035530;28;20214;-69
2022/07/15 09:48:52;;;;;;;0.50;0.50;;;19.70;99.90;;;;;;5034847;28;20202;-68
2022/07/15 09:51:45;;;;;;;0.40;0.40;;;19.70;99.90;;;;;;5035314;28;20271;-69
2022/07/15 09:54:36;;;;;;;1.75;1.75;;;19.80;99.90;;;;;;5034320;28;20214;-72
2022/07/15 09:57:24;;;;;;;0.40;0.40;;;20.10;99.90;;;;;;5034462;28;20205;-70
2022/07/15 10:00:13;;;;;;;0.40;0.40;;;20.00;99.90;;;;;;5033440;28;20206;-70
2022/07/15 10:03:02;;;;;;;0.68;0.50;;;20.30;99.90;;;;;;5036103;28;20198;-70
2022/07/15 10:05:54;;;;;;;0.50;0.50;;;20.70;99.90;;;;;;5038627;28;20257;-70
2022/07/15 10:08:48;;;;;;;0.40;0.40;;;20.50;99.90;;;;;;5034959;28;20206;-71
2022/07/15 10:11:42;;;;;;;0.40;0.40;;;20.50;99.90;;;;;;5034927;28;20209;-71
2022/07/15 10:14:43;;;;;;;0.40;0.40;;;20.50;99.90;;;;;;5035361;28;20222;-70
2022/07/15 10:17:52;;;;;;;0.50;0.50;;;20.40;99.90;;;;;;5074218;22;20233;-75
2022/07/15 10:21:06;;;;;;;0.43;0.43;;;20.30;99.90;;;;;;5053966;28;20198;-75
2022/07/15 10:24:12;;;;;;;0.40;0.40;;;20.60;99.90;;;;;;5055976;28;20239;-82
2022/07/15 10:27:18;;;;;;;0.40;0.40;;;21.10;99.90;;;;;;5053822;28;20682;-80
2022/07/15 10:30:08;;;;;;;0.57;0.50;;;21.40;99.20;;;;;;5033320;28;20198;-78
2022/07/15 10:33:13;;;;;;;0.98;0.98;;;21.10;99.30;;;;;;5033570;28;20202;-79
2022/07/15 10:36:06;;;;;;;2.55;0.60;;;20.70;98.90;;;;;;5033573;28;20226;-76
2022/07/15 10:39:03;;;;;;;7.43;0.88;;;20.70;99.60;;;;;;5032056;28;20800;-76
2022/07/15 10:41:53;;;;;;;0.40;0.40;;;20.30;98.50;;;;;;5032028;28;20666;-74
2022/07/15 10:45:03;;;;;;;0.40;0.40;;;20.30;98.50;;;;;;5032714;28;20205;-75
2022/07/15 10:48:27;;;;;;;0.40;0.40;;;20.70;97.80;;;;;;5032376;28;20213;-76
2022/07/15 10:51:44;;;;;;;0.40;0.40;;;20.70;95.10;;;;;;5032442;28;20233;-75
2022/07/15 10:54:43;;;;;;;0.50;0.50;;;20.40;95.30;;;;;;5031939;28;20210;-78
2022/07/15 10:57:52;;;;;;;0.40;0.40;;;20.20;95.00;;;;;;5045475;28;20228;-74
2022/07/15 11:00:43;;;;;;;0.40;0.40;;;20.50;95.50;;;;;;5053548;28;20243;-75
2022/07/15 11:03:32;;;;;;;0.98;0.68;;;20.60;94.60;;;;;;5052878;28;20771;-80
2022/07/15 11:06:20;;;;;;;0.40;0.40;;;20.90;93.80;;;;;;5051736;28;20625;-78
2022/07/15 11:09:08;;;;;;;0.50;0.50;;;20.80;92.60;;;;;;5052853;28;20520;-75
2022/07/15 11:11:57;;;;;;;0.40;0.40;;;20.70;92.60;;;;;;5052736;28;20721;-76
2022/07/15 11:14:54;;;;;;;1.45;0.85;;;20.80;92.80;;;;;;5052543;28;20440;-76
2022/07/15 11:17:46;;;;;;;0.80;0.60;;;21.00;92.60;;;;;;5052849;28;20229;-75
2022/07/15 11:20:38;;;;;;;3.05;0.60;;;21.10;92.70;;;;;;5050542;28;20216;-80
2022/07/15 11:23:31;;;;;;;1.10;1.10;;;20.90;92.60;;;;;;5052639;28;20228;-78
2022/07/15 11:26:19;;;;;;;0.40;0.40;;;20.80;92.70;;;;;;5054312;28;20213;-74
2022/07/15 11:29:08;;;;;;;0.40;0.40;;;20.80;93.00;;;;;;5031877;28;20247;-75
2022/07/15 11:31:56;;;;;;;0.40;0.40;;;21.20;92.90;;;;;;5032520;28;20209;-76
2022/07/15 11:34:48;;;;;;;0.50;0.50;;;21.50;92.30;;;;;;5031752;28;20344;-78
2022/07/15 11:37:36;;;;;;;0.40;0.40;;;21.50;92.50;;;;;;5038495;28;20230;-75
2022/07/15 11:46:44;;;;;;;0.50;0.50;;;22.00;90.50;;;;;;5046579;28;20233;-74
2022/07/15 11:49:35;;;;;;;0.40;0.40;;;21.50;90.80;;;;;;5049752;28;20247;-75
2022/07/15 11:52:26;;;;;;;1.98;0.50;;;21.40;90.80;;;;;;5049975;28;20657;-73
2022/07/15 11:55:14;;;;;;;0.40;0.40;;;21.40;91.30;;;;;;5050778;28;20228;-78
2022/07/15 11:58:03;;;;;;;0.40;0.40;;;21.50;91.30;;;;;;5049529;28;20208;-78
2022/07/15 12:00:58;;;;;;;5.15;1.05;;;21.60;91.00;;;;;;5049186;28;20264;-75
2022/07/15 12:03:48;;;;;;;0.40;0.40;;;21.50;90.50;;;;;;5054595;28;20366;-80
2022/07/15 12:06:36;;;;;;;0.50;0.50;;;21.30;90.70;;;;;;5033730;28;20264;-73
2022/07/15 12:09:26;;;;;;;0.40;0.40;;;21.30;90.80;;;;;;5044427;28;20197;-75
2022/07/15 12:12:16;;;;;;;0.70;0.50;;;21.40;91.00;;;;;;5054579;28;20688;-77
2022/07/15 12:15:05;;;;;;;0.52;0.52;;;21.60;90.40;;;;;;5052294;28;20232;-75
2022/07/15 12:17:53;;;;;;;0.73;0.50;;;21.60;90.20;;;;;;5053415;28;20685;-72
2022/07/15 12:20:42;;;;;;;1.10;0.60;;;21.50;90.60;;;;;;5051372;28;20212;-77
2022/07/15 12:23:30;;;;;;;0.40;0.40;;;21.50;90.10;;;;;;5053174;28;20626;-77
2022/07/15 12:26:20;;;;;;;0.40;0.40;;;21.30;90.30;;;;;;5055760;28;20224;-78
2022/07/15 12:29:10;;;;;;;0.40;0.40;;;21.30;90.60;;;;;;5053730;28;20201;-77
2022/07/15 12:32:00;;;;;;;0.50;0.50;;;21.10;90.00;;;;;;5052913;28;20582;-74
2022/07/15 12:34:51;;;;;;;0.40;0.40;;;21.30;90.00;;;;;;5054175;28;20580;-76
2022/07/15 12:37:50;;;;;;;0.40;0.40;;;21.40;90.30;;;;;;5055859;28;20224;-74
2022/07/15 12:40:38;;;;;;;0.40;0.40;;;21.80;90.30;;;;;;5054679;28;20197;-75
2022/07/15 12:43:50;;;;;;;0.50;0.50;;;22.40;88.20;;;;;;5055654;28;20213;-76
2022/07/15 12:46:53;;;;;;;0.45;0.45;;;22.70;88.60;;;;;;5056306;28;20220;-75
2022/07/15 12:49:50;;;;;;;0.40;0.40;;;23.00;86.40;;;;;;5041002;28;20200;-75
2022/07/15 12:52:41;;;;;;;0.50;0.50;;;23.40;86.10;;;;;;5056100;28;20678;-74
2022/07/15 12:55:33;;;;;;;0.40;0.40;;;24.00;84.20;;;;;;5055486;28;20217;-71
2022/07/15 12:58:26;;;;;;;0.40;0.40;;;24.30;84.00;;;;;;5054804;28;20201;-75
2022/07/15 13:01:16;;;;;;;0.50;0.50;;;24.10;82.80;;;;;;5054108;28;20682;-73
2022/07/15 13:04:04;;;;;;;1.02;0.60;;;24.30;82.10;;;;;;5056558;28;20328;-73
2022/07/15 13:06:52;;;;;;;0.40;0.40;;;24.40;81.30;;;;;;5055948;28;20615;-74
2022/07/15 13:09:40;;;;;;;1.00;0.70;;;24.60;80.30;;;;;;5054127;28;20209;-73
2022/07/15 13:12:29;;;;;;;2.90;2.15;;;24.80;79.50;;;;;;5056061;28;20205;-73
2022/07/15 13:15:17;;;;;;;0.50;0.50;;;25.80;77.90;;;;;;5055861;28;20205;-73
2022/07/15 13:18:13;;;;;;;0.50;0.50;;;26.60;76.60;;;;;;5055772;28;20695;-82
2022/07/15 13:21:02;;;;;;;0.50;0.50;;;26.20;73.50;;;;;;5055542;28;20739;-73
2022/07/15 13:23:50;;;;;;;0.50;0.50;;;25.20;75.00;;;;;;5056649;28;20201;-77
2022/07/15 13:26:38;;;;;;;0.40;0.40;;;24.20;78.00;;;;;;5057061;28;20264;-75
2022/07/15 13:29:27;;;;;;;0.50;0.50;;;23.90;78.90;;;;;;5056723;28;20216;-75
2022/07/15 13:32:15;;;;;;;0.40;0.40;;;24.50;79.00;;;;;;5055944;28;20208;-74
2022/07/15 13:35:08;;;;;;;0.57;0.57;;;24.90;77.40;;;;;;5059668;28;20725;-75
2022/07/15 13:37:56;;;;;;;0.40;0.40;;;25.00;76.80;;;;;;5060104;28;20189;-75
2022/07/15 13:40:44;;;;;;;1.13;0.85;;;24.70;76.60;;;;;;5057270;28;20200;-74
2022/07/15 13:43:32;;;;;;;0.50;0.50;;;25.30;76.60;;;;;;5054895;28;20677;-75
2022/07/15 13:46:21;;;;;;;0.50;0.50;;;26.80;73.00;;;;;;5055039;28;20221;-74
2022/07/15 13:49:12;;;;;;;0.60;0.60;;;26.50;72.20;;;;;;5054919;28;20201;-76
2022/07/15 13:52:01;;;;;;;0.50;0.50;;;26.30;72.60;;;;;;5038757;28;20582;-75
2022/07/15 13:54:49;;;;;;;0.50;0.50;;;27.20;71.70;;;;;;5039369;28;20213;-75
2022/07/15 13:57:37;;;;;;;0.45;0.45;;;27.80;70.40;;;;;;5051208;28;20228;-76
2022/07/15 14:00:26;;;;;;;0.82;0.57;;;27.90;68.40;;;;;;5056320;28;20205;-74
2022/07/15 14:03:14;;;;;;;0.40;0.40;;;28.00;67.30;;;;;;5054827;28;20205;-70
2022/07/15 14:06:02;;;;;;;0.40;0.40;;;29.40;66.70;;;;;;5052866;28;20227;-71
2022/07/15 14:08:52;;;;;;;0.40;0.40;;;31.70;62.90;;;;;;5053134;28;20212;-71
2022/07/15 14:11:40;;;;;;;1.58;1.58;;;34.40;57.00;;;;;;5051510;28;20193;-72
2022/07/15 14:14:28;;;;;;;0.47;0.47;;;35.90;52.70;;;;;;5051352;28;20362;-71
2022/07/15 14:17:17;;;;;;;0.40;0.40;;;36.00;50.00;;;;;;5051022;28;20581;-70
2022/07/15 14:20:07;;;;;;;0.88;0.85;;;34.80;49.50;;;;;;5051515;28;20371;-71
2022/07/15 14:22:55;;;;;;;0.40;0.40;;;33.70;50.10;;;;;;5051030;28;20205;-71
2022/07/15 14:25:45;;;;;;;0.95;0.50;;;32.20;51.70;;;;;;5050745;28;20298;-71
2022/07/15 14:28:33;;;;;;;0.40;0.40;;;30.10;53.20;;;;;;5051679;28;20225;-72
2022/07/15 14:31:21;;;;;;;0.40;0.40;;;28.40;55.50;;;;;;5051249;28;20728;-73
2022/07/15 14:34:11;;;;;;;0.60;0.60;;;27.10;57.60;;;;;;5051981;28;20204;-75
2022/07/15 14:36:59;;;;;;;0.50;0.50;;;25.90;58.90;;;;;;5053618;28;20221;-73
2022/07/15 14:40:08;;;;;;;0.60;0.50;;;25.00;61.10;;;;;;5053352;28;20306;-72
2022/07/15 14:42:58;;;;;;;0.60;0.60;;;24.60;61.60;;;;;;5052492;28;20208;-77
2022/07/15 14:45:46;;;;;;;0.52;0.52;;;23.90;62.40;;;;;;5051687;28;20708;-75
2022/07/15 14:48:34;;;;;;;0.60;0.60;;;23.40;63.80;;;;;;5051024;28;20587;-79
2022/07/15 14:51:23;;;;;;;0.40;0.40;;;22.80;65.50;;;;;;5050887;28;20255;-75
2022/07/15 14:54:11;;;;;;;0.50;0.50;;;22.60;66.90;;;;;;5051278;28;20206;-77
2022/07/15 14:56:59;;;;;;;1.13;1.13;;;22.30;67.50;;;;;;5052547;28;20224;-74
2022/07/15 14:59:48;;;;;;;0.50;0.50;;;22.10;68.30;;;;;;5050560;28;20201;-75
2022/07/15 15:02:36;;;;;;;0.70;0.70;;;22.20;69.00;;;;;;5050902;28;20205;-75
2022/07/15 15:05:25;;;;;;;0.50;0.50;;;22.80;66.60;;;;;;5053841;28;20682;-77
2022/07/15 15:08:13;;;;;;;0.40;0.40;;;22.80;67.20;;;;;;5053784;28;20201;-77